Time;durP1;ratioP1;P1;durP2;ratioP2;P2;SDS_P1;SDS_P2;PMS_P1;PMS_P2;Temp;Humidity;BMP_temperature;BMP_pressure;BME280_temperature;BME280_humidity;BME280_pressure;Samples;Min_cycle;Max_cycle;Signal;HPM_P1;HPM_P2
2022/11/20 00:00:02;;;;;;;14.60;9.45;;;;;;;5.54;59.44;100827.03;4965055;28;97235;-68
2022/11/20 00:02:29;;;;;;;18.23;9.73;;;;;;;5.61;59.41;100828.69;4966080;28;97595;-68
2022/11/20 00:04:55;;;;;;;20.95;9.98;;;;;;;5.69;58.81;100815.47;4965262;28;99439;-68
2022/11/20 00:07:23;;;;;;;17.63;9.90;;;;;;;5.71;58.66;100821.53;4966241;28;98243;-68
2022/11/20 00:09:50;;;;;;;18.02;9.60;;;;;;;5.72;59.02;100817.16;4969216;28;96849;-69
2022/11/20 00:12:16;;;;;;;15.60;9.20;;;;;;;5.56;59.73;100819.16;4966252;28;98778;-69
2022/11/20 00:14:43;;;;;;;17.05;9.75;;;;;;;5.93;58.69;100822.13;4961512;28;100970;-69
2022/11/20 00:17:10;;;;;;;21.23;10.18;;;;;;;6.03;58.67;100817.63;4965530;28;99057;-69
2022/11/20 00:19:36;;;;;;;15.00;8.52;;;;;;;6.04;58.23;100816.72;4963156;28;96736;-69
2022/11/20 00:22:02;;;;;;;16.83;9.40;;;;;;;5.82;58.53;100817.03;4966605;28;98897;-69
2022/11/20 00:24:30;;;;;;;16.75;9.38;;;;;;;5.91;58.20;100818.66;4963989;28;98853;-70
2022/11/20 00:26:56;;;;;;;22.23;10.82;;;;;;;6.02;58.04;100815.88;4965668;28;99259;-68
2022/11/20 00:29:23;;;;;;;18.13;9.90;;;;;;;5.64;58.62;100825.16;4968938;28;96814;-68
2022/11/20 00:31:49;;;;;;;18.15;8.85;;;;;;;5.72;58.72;100818.03;4965872;28;96896;-68
2022/11/20 00:34:16;;;;;;;15.77;9.38;;;;;;;5.73;58.76;100821.53;4961982;28;98912;-69
2022/11/20 00:36:42;;;;;;;13.57;8.05;;;;;;;5.50;58.42;100825.34;4965228;28;99104;-69
2022/11/20 00:39:08;;;;;;;16.63;8.88;;;;;;;5.59;58.75;100827.81;4964605;28;97059;-68
2022/11/20 00:41:36;;;;;;;18.52;9.43;;;;;;;5.55;58.28;100826.16;4966019;28;98978;-68
2022/11/20 00:44:03;;;;;;;19.77;8.98;;;;;;;5.80;57.58;100829.28;4964340;28;99279;-68
2022/11/20 00:46:29;;;;;;;14.80;9.23;;;;;;;5.61;57.96;100833.91;4969763;28;98863;-68
2022/11/20 00:48:56;;;;;;;15.65;9.32;;;;;;;5.72;57.59;100828.50;4963458;28;98711;-69
2022/11/20 00:51:26;;;;;;;15.32;9.38;;;;;;;5.41;57.69;100829.84;4966631;28;97069;-68
2022/11/20 00:53:52;;;;;;;16.60;8.82;;;;;;;5.64;57.72;100833.03;4961500;28;99789;-69
2022/11/20 00:56:20;;;;;;;15.55;9.05;;;;;;;5.53;57.56;100819.19;4964673;28;99221;-68
2022/11/20 00:58:49;;;;;;;17.83;9.38;;;;;;;5.56;57.26;100820.03;4968977;28;97664;-68
2022/11/20 01:01:18;;;;;;;16.00;8.93;;;;;;;5.33;58.12;100813.34;4972171;28;96965;-68
2022/11/20 01:03:46;;;;;;;15.93;8.88;;;;;;;5.44;58.05;100825.44;4962857;28;99311;-68
2022/11/20 01:06:15;;;;;;;16.48;8.95;;;;;;;5.58;57.47;100820.84;4966918;28;99223;-68
2022/11/20 01:08:42;;;;;;;17.95;9.02;;;;;;;5.61;57.66;100822.56;4971012;28;99232;-67
2022/11/20 01:11:10;;;;;;;14.55;8.55;;;;;;;5.70;57.39;100822.44;4965892;28;97067;-67
2022/11/20 01:13:38;;;;;;;15.13;9.23;;;;;;;5.77;57.76;100825.84;4968912;28;98985;-69
2022/11/20 01:16:07;;;;;;;16.27;9.00;;;;;;;5.71;57.73;100818.91;4967138;28;98893;-69
2022/11/20 01:18:34;;;;;;;17.77;9.18;;;;;;;5.97;56.73;100826.47;4967136;28;97432;-69
2022/11/20 01:21:03;;;;;;;16.38;8.55;;;;;;;5.75;56.95;100815.38;4969305;28;98871;-69
2022/11/20 01:23:33;;;;;;;16.58;9.10;;;;;;;5.47;57.65;100811.41;4968381;28;98964;-68
2022/11/20 01:26:04;;;;;;;20.45;9.50;;;;;;;5.64;57.06;100811.19;4965060;28;99308;-68
2022/11/20 01:28:34;;;;;;;17.88;9.65;;;;;;;5.53;57.24;100820.03;4966904;28;98816;-68
2022/11/20 01:31:01;;;;;;;17.38;8.98;;;;;;;5.50;57.52;100816.63;4966567;28;97008;-69
2022/11/20 01:33:29;;;;;;;17.83;9.52;;;;;;;5.55;56.81;100801.69;4966427;28;98915;-69
2022/11/20 01:36:04;;;;;;;13.00;8.68;;;;;;;5.60;56.74;100807.72;4964574;28;99246;-69
2022/11/20 01:38:31;;;;;;;15.82;9.50;;;;;;;5.52;56.55;100810.44;4966867;28;97585;-68
2022/11/20 01:40:57;;;;;;;16.63;9.45;;;;;;;5.77;56.13;100802.25;4963424;28;98048;-68
2022/11/20 01:43:24;;;;;;;15.27;8.82;;;;;;;5.60;56.87;100805.09;4966206;28;97763;-68
2022/11/20 01:46:04;;;;;;;18.50;9.52;;;;;;;5.44;56.67;100799.22;4964981;28;99334;-69
2022/11/20 01:48:37;;;;;;;17.67;9.95;;;;;;;5.76;56.61;100800.50;4968356;28;98762;-68
2022/11/20 01:51:04;;;;;;;15.05;9.52;;;;;;;5.67;56.13;100806.75;4966795;28;97199;-68
2022/11/20 01:53:35;;;;;;;18.40;10.15;;;;;;;5.52;56.92;100804.34;4964133;28;99428;-69
2022/11/20 01:56:03;;;;;;;16.90;9.52;;;;;;;5.45;57.06;100805.31;4965024;28;99382;-67
2022/11/20 01:58:34;;;;;;;17.35;10.32;;;;;;;5.47;57.24;100803.53;4965742;28;97275;-67
2022/11/20 02:01:01;;;;;;;17.85;10.05;;;;;;;5.25;57.19;100795.09;4967602;28;97524;-69
2022/11/20 02:03:28;;;;;;;15.88;9.75;;;;;;;5.53;56.85;100798.22;4971135;28;99117;-68
2022/11/20 02:06:02;;;;;;;20.40;10.88;;;;;;;5.47;57.01;100803.53;4965892;28;99326;-69
2022/11/20 02:08:29;;;;;;;18.10;10.65;;;;;;;5.65;56.88;100798.03;4967404;28;97588;-68
2022/11/20 02:10:56;;;;;;;16.63;9.77;;;;;;;5.61;56.48;100793.72;4965819;28;97029;-68
2022/11/20 02:16:10;;;;;;;17.58;9.70;;;;;;;5.65;56.68;100792.78;4967950;28;97604;-70
2022/11/20 02:18:38;;;;;;;21.90;11.18;;;;;;;5.56;56.11;100780.69;4967222;28;97766;-68
2022/11/20 02:21:10;;;;;;;21.95;11.27;;;;;;;5.49;56.46;100775.56;4968437;28;97250;-68
2022/11/20 02:23:40;;;;;;;19.67;10.45;;;;;;;5.52;56.82;100780.75;4965389;28;98997;-68
2022/11/20 02:26:11;;;;;;;18.55;10.65;;;;;;;5.62;56.91;100777.13;4964353;28;99456;-69
2022/11/20 02:28:38;;;;;;;19.38;10.13;;;;;;;5.42;56.83;100787.03;4968963;28;96823;-68
2022/11/20 02:31:05;;;;;;;21.70;10.38;;;;;;;5.66;56.58;100784.03;4967042;28;97689;-68
2022/11/20 02:33:31;;;;;;;21.90;11.27;;;;;;;5.44;56.94;100774.78;4966602;28;98842;-68
2022/11/20 02:35:58;;;;;;;20.30;11.07;;;;;;;5.48;57.48;100777.31;4965170;28;98973;-68
2022/11/20 02:38:24;;;;;;;20.33;10.95;;;;;;;5.69;56.62;100781.38;4963963;28;96757;-68
2022/11/20 02:40:51;;;;;;;19.10;10.63;;;;;;;5.85;56.25;100775.00;4967618;28;97096;-68
2022/11/20 02:43:19;;;;;;;20.27;11.27;;;;;;;5.53;56.79;100778.09;4963531;28;98454;-69
2022/11/20 02:45:45;;;;;;;19.08;11.07;;;;;;;5.68;56.34;100786.66;4968671;28;98873;-68
2022/11/20 02:48:12;;;;;;;20.77;10.98;;;;;;;5.79;56.27;100772.47;4970384;28;96705;-67
2022/11/20 02:50:40;;;;;;;20.10;10.75;;;;;;;5.54;56.95;100785.09;4970163;28;97091;-68
2022/11/20 02:53:07;;;;;;;20.02;10.25;;;;;;;5.73;56.80;100777.81;4965301;28;100880;-68
2022/11/20 02:55:34;;;;;;;19.67;11.63;;;;;;;5.72;56.83;100778.69;4968785;28;99156;-68
2022/11/20 02:58:00;;;;;;;19.63;11.27;;;;;;;5.78;56.63;100772.50;4966780;28;98394;-67
2022/11/20 03:00:28;;;;;;;19.20;10.70;;;;;;;5.78;56.68;100772.50;4963454;28;96876;-69
2022/11/20 03:02:54;;;;;;;19.08;10.90;;;;;;;5.55;57.16;100775.47;4962243;28;99566;-69
2022/11/20 03:05:23;;;;;;;22.90;11.68;;;;;;;5.67;57.07;100779.66;4966975;28;99303;-69
2022/11/20 03:07:49;;;;;;;20.52;11.15;;;;;;;5.67;56.62;100777.91;4964386;28;96857;-68
2022/11/20 03:10:16;;;;;;;20.98;10.93;;;;;;;5.75;55.93;100770.81;4970420;28;98385;-68
2022/11/20 03:12:43;;;;;;;21.90;11.85;;;;;;;5.61;56.38;100772.75;4964857;28;99211;-68
2022/11/20 03:15:11;;;;;;;19.90;11.15;;;;;;;5.70;56.10;100767.41;4960353;28;98763;-67
2022/11/20 03:17:38;;;;;;;20.27;11.23;;;;;;;5.61;56.75;100764.91;4968039;28;98778;-67
2022/11/20 03:20:06;;;;;;;20.75;11.80;;;;;;;5.78;55.83;100762.88;4964513;28;96877;-68
2022/11/20 03:22:33;;;;;;;27.50;11.52;;;;;;;5.70;55.91;100763.91;4970056;28;98922;-69
2022/11/20 03:24:59;;;;;;;20.58;11.18;;;;;;;5.67;56.37;100756.94;4963983;28;99245;-68
2022/11/20 03:27:26;;;;;;;20.10;10.75;;;;;;;5.80;56.36;100760.22;4968292;28;99256;-68
2022/11/20 03:29:52;;;;;;;21.05;11.95;;;;;;;5.75;56.06;100756.81;4970295;28;96970;-68
2022/11/20 03:32:19;;;;;;;21.33;11.98;;;;;;;5.69;56.14;100754.31;4964275;28;99378;-67
2022/11/20 03:34:46;;;;;;;21.33;12.10;;;;;;;5.77;55.76;100758.53;4966033;28;99232;-68
2022/11/20 03:37:13;;;;;;;19.92;11.10;;;;;;;5.49;55.99;100758.09;4966936;28;97008;-67
2022/11/20 03:39:39;;;;;;;23.33;12.77;;;;;;;5.45;56.46;100759.00;4966740;28;97967;-68
2022/11/20 03:42:44;;;;;;;21.00;12.25;;;;;;;5.58;56.89;100754.44;4964644;28;99119;-68
2022/11/20 03:44:52;;;;;;;21.00;11.60;;;;;;;5.44;55.78;100751.19;4965102;28;98703;-68
2022/11/20 03:47:19;;;;;;;18.95;10.75;;;;;;;5.49;56.32;100749.34;4966423;28;97015;-68
2022/11/20 03:49:47;;;;;;;21.17;11.38;;;;;;;5.49;56.46;100754.59;4961496;28;96799;-68
2022/11/20 03:52:13;;;;;;;22.88;11.45;;;;;;;5.45;56.56;100755.50;4964404;28;99546;-70
2022/11/20 03:54:40;;;;;;;21.67;11.98;;;;;;;5.34;56.62;100752.19;4963967;28;98853;-67
2022/11/20 03:57:06;;;;;;;22.55;11.48;;;;;;;5.36;56.95;100747.81;4961600;28;98836;-68
2022/11/20 03:59:32;;;;;;;21.02;11.32;;;;;;;5.25;56.63;100754.94;4964465;28;97149;-69
2022/11/20 04:01:59;;;;;;;21.35;11.80;;;;;;;5.30;56.64;100748.75;4963283;28;99722;-67
2022/11/20 04:04:26;;;;;;;20.20;11.40;;;;;;;5.34;56.92;100744.31;4967541;28;98881;-67
2022/11/20 04:06:53;;;;;;;23.23;12.40;;;;;;;5.50;56.40;100751.97;4968966;28;96882;-68
2022/11/20 04:09:20;;;;;;;24.92;11.90;;;;;;;5.61;56.20;100754.41;4965523;28;96920;-68
2022/11/20 04:11:46;;;;;;;20.88;11.98;;;;;;;5.44;57.02;100748.56;4964729;28;98881;-68
2022/11/20 04:14:16;;;;;;;24.08;12.07;;;;;;;5.61;56.80;100743.94;4965781;28;99335;-65
2022/11/20 04:16:42;;;;;;;22.95;12.45;;;;;;;5.52;56.61;100744.06;4964089;28;98704;-66
2022/11/20 04:19:12;;;;;;;21.85;12.18;;;;;;;5.54;56.63;100752.78;4964689;28;97856;-65
2022/11/20 04:21:38;;;;;;;17.63;10.52;;;;;;;5.41;56.63;100745.97;4966237;28;98799;-65
2022/11/20 04:24:07;;;;;;;20.33;10.98;;;;;;;5.51;56.11;100750.22;4969190;28;100720;-66
2022/11/20 04:26:35;;;;;;;20.70;11.40;;;;;;;5.30;56.67;100753.13;4970057;28;97938;-66
2022/11/20 04:29:02;;;;;;;25.13;12.63;;;;;;;5.35;56.78;100746.06;4965394;28;99874;-66
2022/11/20 04:31:30;;;;;;;24.65;11.20;;;;;;;5.51;56.23;100752.84;4967848;28;97936;-65
2022/11/20 04:34:02;;;;;;;19.88;11.13;;;;;;;5.42;56.17;100753.81;4967263;28;99253;-67
2022/11/20 04:36:30;;;;;;;21.85;11.57;;;;;;;5.54;55.93;100750.16;4967084;28;97342;-66
2022/11/20 04:39:01;;;;;;;21.40;11.82;;;;;;;5.48;56.08;100753.72;4973204;28;96879;-65
2022/11/20 04:41:31;;;;;;;22.38;11.95;;;;;;;5.42;56.52;100745.97;4970518;28;99588;-66
2022/11/20 04:44:02;;;;;;;22.00;12.25;;;;;;;5.49;56.20;100750.22;4964160;28;98791;-66
2022/11/20 04:46:29;;;;;;;23.30;12.18;;;;;;;5.47;56.31;100740.63;4970637;28;96972;-67
2022/11/20 04:48:56;;;;;;;19.98;11.82;;;;;;;5.33;56.92;100740.84;4972257;28;98709;-66
2022/11/20 04:51:23;;;;;;;22.90;11.45;;;;;;;5.28;56.87;100744.41;4967881;28;98920;-66
2022/11/20 04:53:49;;;;;;;21.73;11.43;;;;;;;5.34;57.18;100739.97;4968874;28;99205;-66
2022/11/20 04:56:16;;;;;;;20.45;11.93;;;;;;;5.50;56.49;100735.38;4969103;28;98525;-66
2022/11/20 04:58:44;;;;;;;20.15;11.95;;;;;;;5.48;56.13;100739.75;4971979;28;97144;-67
2022/11/20 05:01:16;;;;;;;20.98;11.73;;;;;;;5.50;56.27;100735.38;4970327;28;98925;-68
2022/11/20 05:03:43;;;;;;;21.05;11.43;;;;;;;5.36;56.44;100726.84;4967398;28;99064;-66
2022/11/20 05:06:12;;;;;;;21.55;11.90;;;;;;;5.37;56.44;100728.56;4973845;28;96759;-68
2022/11/20 05:08:39;;;;;;;20.60;11.57;;;;;;;5.44;56.15;100724.97;4968952;28;96847;-65
2022/11/20 05:11:07;;;;;;;23.35;11.57;;;;;;;5.52;56.58;100718.72;4970942;28;98960;-66
2022/11/20 05:13:34;;;;;;;21.35;11.80;;;;;;;5.58;56.49;100712.50;4972798;28;99292;-67
2022/11/20 05:16:07;;;;;;;22.77;11.73;;;;;;;5.55;56.46;100717.81;4967831;28;96873;-66
2022/11/20 05:18:34;;;;;;;19.95;11.50;;;;;;;5.65;56.23;100713.28;4964438;28;97225;-67
2022/11/20 05:21:01;;;;;;;23.02;11.93;;;;;;;5.57;56.29;100708.19;4965917;28;98906;-66
2022/11/20 05:23:29;;;;;;;19.95;11.23;;;;;;;5.44;56.45;100704.00;4968611;28;99139;-66
2022/11/20 05:25:57;;;;;;;23.13;12.40;;;;;;;5.53;56.30;100703.84;4967990;28;96852;-65
2022/11/20 05:28:25;;;;;;;22.90;12.05;;;;;;;5.39;56.15;100701.44;4972252;28;97171;-66
2022/11/20 05:30:51;;;;;;;17.98;10.88;;;;;;;5.47;56.54;100699.56;4972151;28;99245;-66
2022/11/20 05:33:19;;;;;;;24.52;12.60;;;;;;;5.48;56.20;100701.31;4972877;28;100979;-65
2022/11/20 05:35:46;;;;;;;21.85;11.60;;;;;;;5.61;56.39;100712.47;4969737;28;96817;-66
2022/11/20 05:38:12;;;;;;;20.67;12.30;;;;;;;5.63;56.07;100704.59;4967700;28;100021;-66
2022/11/20 05:40:39;;;;;;;18.63;10.77;;;;;;;5.77;55.59;100702.63;4968011;28;99590;-66
2022/11/20 05:43:05;;;;;;;20.20;11.77;;;;;;;5.61;56.20;100709.84;4968502;28;98980;-66
2022/11/20 05:45:32;;;;;;;20.67;11.38;;;;;;;5.49;56.18;100704.81;4969380;28;96809;-66
2022/11/20 05:48:00;;;;;;;20.92;11.23;;;;;;;5.67;56.45;100701.88;4971096;28;96929;-66
2022/11/20 05:50:28;;;;;;;24.75;12.63;;;;;;;5.53;56.38;100689.00;4964306;28;99278;-66
2022/11/20 05:52:54;;;;;;;20.80;11.75;;;;;;;5.56;56.38;100688.97;4969568;28;99651;-65
2022/11/20 05:55:21;;;;;;;20.55;11.45;;;;;;;5.55;56.79;100694.22;4962708;28;97554;-66
2022/11/20 05:57:47;;;;;;;21.88;11.80;;;;;;;5.47;56.32;100696.97;4971270;28;96828;-66
2022/11/20 06:00:15;;;;;;;17.33;11.10;;;;;;;5.87;56.40;100691.97;4968977;28;101493;-66
2022/11/20 06:02:45;;;;;;;21.10;12.00;;;;;;;5.68;55.70;100698.38;4967962;28;99012;-66
2022/11/20 06:05:11;;;;;;;23.25;11.32;;;;;;;5.71;55.99;100695.69;4972101;28;97394;-66
2022/11/20 06:07:39;;;;;;;18.83;11.60;;;;;;;5.89;55.61;100690.19;4972984;28;96908;-68
2022/11/20 06:10:06;;;;;;;22.48;12.05;;;;;;;5.70;56.40;100693.97;4964521;28;98983;-68
2022/11/20 06:12:33;;;;;;;23.33;11.65;;;;;;;5.68;56.48;100690.50;4966897;28;98789;-68
2022/11/20 06:15:00;;;;;;;20.70;12.20;;;;;;;5.64;55.89;100688.84;4969104;28;97696;-68
2022/11/20 06:17:27;;;;;;;21.92;11.70;;;;;;;5.58;56.69;100692.41;4968482;28;97057;-68
2022/11/20 06:19:53;;;;;;;24.33;11.63;;;;;;;5.30;57.12;100682.38;4973274;28;99111;-68
2022/11/20 06:22:20;;;;;;;24.50;12.30;;;;;;;5.55;56.48;100689.84;4968396;28;98866;-68
2022/11/20 06:24:48;;;;;;;21.23;11.20;;;;;;;5.55;56.35;100692.47;4970009;28;99084;-68
2022/11/20 06:27:14;;;;;;;20.95;12.13;;;;;;;5.65;56.17;100689.69;4964131;28;96839;-68
2022/11/20 06:29:41;;;;;;;23.02;11.73;;;;;;;5.71;56.27;100693.06;4966585;28;99323;-69
2022/11/20 06:32:10;;;;;;;19.10;11.48;;;;;;;5.65;56.24;100687.06;4969167;28;99218;-68
2022/11/20 06:34:36;;;;;;;22.73;12.07;;;;;;;5.75;56.41;100688.66;4970574;28;97920;-69
2022/11/20 06:37:03;;;;;;;23.27;11.85;;;;;;;5.87;55.64;100689.34;4967467;28;96985;-69
2022/11/20 06:39:29;;;;;;;26.25;12.38;;;;;;;5.72;56.14;100686.94;4971066;28;98845;-70
2022/11/20 06:41:57;;;;;;;22.50;12.65;;;;;;;5.71;55.66;100692.22;4968122;28;101923;-69
2022/11/20 06:44:24;;;;;;;21.48;11.63;;;;;;;5.48;55.79;100685.59;4968336;28;96878;-69
2022/11/20 06:46:50;;;;;;;22.83;12.55;;;;;;;5.73;55.44;100685.19;4969885;28;97946;-70
2022/11/20 06:49:17;;;;;;;24.80;12.52;;;;;;;5.61;56.44;100688.88;4968965;28;99528;-69
2022/11/20 06:51:44;;;;;;;22.38;13.07;;;;;;;5.36;56.77;100685.78;4964637;28;97686;-68
2022/11/20 06:54:12;;;;;;;24.05;11.77;;;;;;;5.57;55.94;100684.59;4971022;28;96725;-68
2022/11/20 06:56:38;;;;;;;22.75;12.32;;;;;;;5.79;55.72;100680.69;4966960;28;97093;-68
2022/11/20 06:59:07;;;;;;;24.38;13.02;;;;;;;5.70;55.28;100682.63;4968576;28;99249;-69
2022/11/20 07:01:34;;;;;;;23.02;11.95;;;;;;;5.34;55.75;100679.69;4968804;28;98882;-68
2022/11/20 07:04:01;;;;;;;20.88;11.88;;;;;;;5.33;57.20;100680.56;4964502;28;96879;-68
2022/11/20 07:06:27;;;;;;;24.25;12.07;;;;;;;5.41;56.89;100677.84;4967464;28;96940;-68
2022/11/20 07:08:54;;;;;;;25.00;13.23;;;;;;;5.53;56.14;100675.88;4971556;28;99172;-71
2022/11/20 07:11:21;;;;;;;21.00;12.10;;;;;;;5.40;56.47;100681.34;4969526;28;99622;-69
2022/11/20 07:13:48;;;;;;;23.00;12.52;;;;;;;5.49;56.07;100675.97;4962639;28;98669;-69
2022/11/20 07:16:17;;;;;;;22.25;12.55;;;;;;;5.53;56.08;100682.88;4971355;28;96918;-69
2022/11/20 07:18:43;;;;;;;22.25;11.60;;;;;;;5.62;55.54;100677.50;4963374;28;101244;-68
2022/11/20 07:21:14;;;;;;;21.20;11.68;;;;;;;5.44;56.21;100680.44;4971164;28;98784;-68
2022/11/20 07:23:44;;;;;;;20.60;11.88;;;;;;;5.67;55.53;100680.91;4964506;28;97197;-68
2022/11/20 07:26:11;;;;;;;22.58;13.00;;;;;;;5.48;55.48;100682.97;4967682;28;96925;-69
2022/11/20 07:28:39;;;;;;;21.27;12.60;;;;;;;5.53;55.70;100682.88;4965194;28;99191;-67
2022/11/20 07:31:06;;;;;;;25.90;12.27;;;;;;;5.40;55.11;100681.34;4969807;28;99244;-67
2022/11/20 07:33:34;;;;;;;24.15;11.88;;;;;;;5.32;55.84;100693.69;4962247;28;96822;-69
2022/11/20 07:36:01;;;;;;;22.60;12.85;;;;;;;5.29;56.21;100681.53;4964957;28;98178;-68
2022/11/20 07:38:28;;;;;;;23.35;12.80;;;;;;;5.51;55.74;100685.53;4964358;28;98245;-67
2022/11/20 07:40:56;;;;;;;21.50;12.85;;;;;;;5.67;55.33;100680.03;4966513;28;98911;-68
2022/11/20 07:43:22;;;;;;;26.40;12.85;;;;;;;5.46;54.90;100676.00;4967743;28;97097;-68
2022/11/20 07:45:49;;;;;;;22.08;12.40;;;;;;;5.46;55.80;100671.63;4970277;28;96924;-70
2022/11/20 07:48:15;;;;;;;23.45;13.32;;;;;;;5.58;54.83;100675.81;4967861;28;99293;-68
2022/11/20 07:50:43;;;;;;;24.05;12.65;;;;;;;5.60;54.67;100671.41;4968011;28;98113;-68
2022/11/20 07:53:09;;;;;;;23.88;13.30;;;;;;;5.21;55.71;100665.03;4968232;28;96771;-69
2022/11/20 07:55:36;;;;;;;23.95;13.13;;;;;;;5.41;55.63;100668.22;4970175;28;97318;-68
2022/11/20 07:58:02;;;;;;;27.20;12.95;;;;;;;5.53;55.63;100678.50;4967072;28;99032;-68
2022/11/20 08:00:29;;;;;;;20.15;12.23;;;;;;;5.46;54.81;100673.38;4966108;28;98822;-68
2022/11/20 08:02:55;;;;;;;22.30;12.93;;;;;;;5.34;54.97;100676.19;4963303;28;96807;-69
2022/11/20 08:05:22;;;;;;;22.33;12.68;;;;;;;5.44;55.03;100676.06;4970845;28;97596;-69
2022/11/20 08:07:50;;;;;;;24.83;13.48;;;;;;;5.40;55.09;100673.47;4969782;28;99402;-68
2022/11/20 08:10:17;;;;;;;21.90;13.32;;;;;;;5.42;55.15;100663.84;4970914;28;97987;-69
2022/11/20 08:15:32;;;;;;;24.33;13.18;;;;;;;5.65;53.92;100661.72;4962333;28;96873;-67
2022/11/20 08:18:03;;;;;;;24.42;12.50;;;;;;;5.84;53.00;100657.88;4962121;28;100034;-69
2022/11/20 08:20:30;;;;;;;23.23;13.23;;;;;;;5.54;54.06;100656.66;4968167;28;98916;-68
2022/11/20 08:23:02;;;;;;;25.05;13.38;;;;;;;5.68;53.55;100666.91;4963235;28;98943;-69
2022/11/20 08:25:29;;;;;;;29.00;13.88;;;;;;;5.71;53.38;100661.59;4967976;28;97358;-69
2022/11/20 08:28:05;;;;;;;23.38;12.93;;;;;;;5.65;53.57;100666.94;4962537;28;98934;-67
2022/11/20 08:30:32;;;;;;;22.47;13.87;;;;;;;5.54;53.46;100668.91;4962535;28;100169;-68
2022/11/20 08:33:03;;;;;;;25.60;13.52;;;;;;;5.66;53.29;100671.31;4969103;28;97573;-67
2022/11/20 08:35:33;;;;;;;23.75;13.20;;;;;;;5.37;54.05;100656.06;4969278;28;96909;-68
2022/11/20 08:38:01;;;;;;;25.92;12.30;;;;;;;5.47;54.32;100659.41;4963668;28;98955;-68
2022/11/20 08:40:27;;;;;;;27.58;13.38;;;;;;;5.46;54.27;100647.19;4969448;28;99116;-69
2022/11/20 08:42:54;;;;;;;25.25;13.02;;;;;;;5.55;53.82;100649.66;4968335;28;97017;-69
2022/11/20 08:45:20;;;;;;;24.05;13.05;;;;;;;5.71;53.84;100645.03;4966991;28;96936;-69
2022/11/20 08:47:47;;;;;;;26.05;12.93;;;;;;;5.62;53.80;100648.66;4969329;28;98927;-68
2022/11/20 08:50:16;;;;;;;21.42;12.32;;;;;;;5.74;54.09;100648.47;4968278;28;100670;-68
2022/11/20 08:52:42;;;;;;;23.83;13.07;;;;;;;5.55;54.11;100636.56;4968014;28;96906;-68
2022/11/20 08:55:11;;;;;;;22.63;13.32;;;;;;;5.63;53.44;100645.16;4962232;28;97653;-67
2022/11/20 08:57:38;;;;;;;24.85;12.93;;;;;;;5.63;53.78;100655.66;4964199;28;98918;-68
2022/11/20 09:00:07;;;;;;;25.58;13.35;;;;;;;5.71;53.56;100666.00;4963871;28;98958;-69
2022/11/20 09:02:34;;;;;;;26.45;13.88;;;;;;;5.80;53.66;100657.97;4963707;28;98837;-68
2022/11/20 09:05:02;;;;;;;21.10;12.27;;;;;;;5.75;53.81;100665.06;4962559;28;98896;-69
2022/11/20 09:07:28;;;;;;;23.40;12.20;;;;;;;5.77;53.54;100653.66;4963660;28;99917;-68
2022/11/20 09:09:55;;;;;;;22.65;12.57;;;;;;;5.71;53.17;100656.38;4966178;28;101351;-68
2022/11/20 09:12:23;;;;;;;22.27;11.52;;;;;;;5.56;53.72;100656.63;4967046;28;97797;-69
2022/11/20 09:14:50;;;;;;;37.72;17.98;;;;;;;5.74;54.25;100652.84;4963600;28;96916;-69
2022/11/20 09:17:17;;;;;;;25.75;13.23;;;;;;;5.88;53.65;100658.75;4960955;28;99974;-68
2022/11/20 09:19:46;;;;;;;25.40;12.98;;;;;;;5.93;53.35;100665.63;4968889;28;99397;-68
2022/11/20 09:22:15;;;;;;;26.65;12.05;;;;;;;5.88;53.67;100657.00;4967862;28;97076;-69
2022/11/20 09:24:42;;;;;;;24.65;12.77;;;;;;;5.98;53.33;100665.53;4970216;28;98982;-69
2022/11/20 09:27:09;;;;;;;23.35;12.60;;;;;;;6.04;52.71;100657.56;4968888;28;99356;-68
2022/11/20 09:29:39;;;;;;;22.63;12.68;;;;;;;6.10;52.57;100661.84;4967958;28;97722;-67
2022/11/20 09:32:08;;;;;;;23.27;13.00;;;;;;;6.08;52.44;100666.25;4964345;28;98778;-68
2022/11/20 09:34:34;;;;;;;19.98;12.23;;;;;;;6.10;52.70;100659.22;4966282;28;98937;-68
2022/11/20 09:37:01;;;;;;;25.60;12.43;;;;;;;6.02;53.20;100663.75;4962111;28;99214;-67
2022/11/20 09:39:27;;;;;;;23.10;12.35;;;;;;;6.06;52.78;100662.78;4963443;28;99195;-68
2022/11/20 09:42:15;;;;;;;23.83;12.88;;;;;;;6.11;52.18;100651.31;4965794;28;97678;-68
2022/11/20 09:44:55;;;;;;;53.28;24.27;;;;;;;6.08;52.48;100655.75;4967080;28;97269;-68
2022/11/20 09:47:33;;;;;;;24.60;12.82;;;;;;;5.95;52.83;100652.50;4967816;28;99294;-69
2022/11/20 09:50:17;;;;;;;25.08;13.00;;;;;;;6.09;52.23;100641.75;4966079;28;100716;-68
2022/11/20 09:52:54;;;;;;;23.15;13.15;;;;;;;6.15;52.48;100645.13;4964041;28;97066;-68
2022/11/20 09:55:21;;;;;;;22.50;12.52;;;;;;;6.17;52.56;100645.09;4962120;28;97411;-68
2022/11/20 09:57:52;;;;;;;21.63;12.35;;;;;;;6.06;52.73;100652.28;4970308;28;98661;-68
2022/11/20 10:00:21;;;;;;;21.95;12.43;;;;;;;6.20;52.46;100643.28;4961650;28;100676;-68
2022/11/20 10:02:53;;;;;;;21.95;11.77;;;;;;;6.35;52.11;100645.59;4967743;28;96941;-68
2022/11/20 10:05:23;;;;;;;19.02;11.57;;;;;;;6.43;51.41;100644.59;4963914;28;97066;-68
2022/11/20 10:07:56;;;;;;;20.17;11.40;;;;;;;6.40;51.85;100638.50;4965203;28;98832;-68
2022/11/20 10:10:32;;;;;;;23.20;12.20;;;;;;;6.37;51.43;100648.19;4967550;28;98889;-70
2022/11/20 10:13:23;;;;;;;23.40;12.55;;;;;;;6.42;51.76;100641.09;4960218;28;98868;-70
2022/11/20 10:16:02;;;;;;;23.00;11.20;;;;;;;6.37;51.58;100633.28;4963416;28;97501;-68
2022/11/20 10:18:40;;;;;;;23.25;12.40;;;;;;;6.39;52.08;100638.53;4964347;28;99051;-68
2022/11/20 10:21:15;;;;;;;20.08;11.30;;;;;;;6.25;52.42;100637.94;4963994;28;100686;-68
2022/11/20 10:24:10;;;;;;;20.73;11.82;;;;;;;6.48;52.06;100622.59;4958816;28;97146;-68
2022/11/20 10:26:43;;;;;;;19.92;11.88;;;;;;;6.16;52.64;100627.63;4964936;28;99237;-68
2022/11/20 10:29:13;;;;;;;20.95;11.40;;;;;;;5.94;53.36;100628.03;4963896;28;100677;-67
2022/11/20 10:31:45;;;;;;;22.08;12.95;;;;;;;6.30;51.88;100612.47;4962114;28;100056;-69
2022/11/20 10:34:21;;;;;;;25.35;12.43;;;;;;;6.57;51.85;100617.13;4960739;28;98726;-70
2022/11/20 10:36:53;;;;;;;22.55;12.75;;;;;;;6.61;52.16;100612.69;4965547;28;97455;-69
2022/11/20 10:39:27;;;;;;;21.30;12.15;;;;;;;6.91;51.35;100606.75;4969155;28;98962;-69
2022/11/20 10:41:57;;;;;;;19.33;10.80;;;;;;;6.82;50.86;100604.38;4968161;28;99804;-69
2022/11/20 10:47:15;;;;;;;17.15;10.88;;;;;;;6.88;50.98;100600.72;4965145;28;96811;-68
2022/11/20 10:49:44;;;;;;;21.58;11.60;;;;;;;6.74;51.36;100607.16;4964649;28;99074;-68
2022/11/20 10:52:18;;;;;;;20.73;11.40;;;;;;;6.85;51.40;100606.03;4967382;28;98807;-68
2022/11/20 10:55:00;;;;;;;22.25;11.57;;;;;;;6.57;51.60;100595.25;4966572;28;97002;-68
2022/11/20 10:57:47;;;;;;;17.88;11.18;;;;;;;6.62;51.56;100594.28;4964435;28;96733;-68
2022/11/20 11:00:16;;;;;;;19.85;11.38;;;;;;;6.80;50.81;100596.50;4967955;28;99555;-71
2022/11/20 11:02:48;;;;;;;19.95;12.30;;;;;;;7.07;50.64;100596.78;4965464;28;99264;-69
2022/11/20 11:05:23;;;;;;;22.92;13.20;;;;;;;7.28;50.29;100595.41;4960543;28;98069;-69
2022/11/20 11:07:51;;;;;;;22.42;10.57;;;;;;;7.10;50.41;100594.06;4964227;28;97572;-69
2022/11/20 11:10:22;;;;;;;19.55;11.30;;;;;;;7.14;50.19;100599.22;4964811;28;99628;-68
2022/11/20 11:12:49;;;;;;;25.90;12.20;;;;;;;7.34;50.05;100597.88;4966048;28;98967;-68
2022/11/20 11:15:26;;;;;;;18.52;11.55;;;;;;;7.54;48.94;100600.88;4965483;28;98106;-68
2022/11/20 11:17:54;;;;;;;21.30;11.85;;;;;;;7.19;49.98;100599.09;4964897;28;97163;-70
2022/11/20 11:20:23;;;;;;;17.75;10.65;;;;;;;7.45;49.29;100596.72;4962540;28;99095;-68
2022/11/20 11:22:51;;;;;;;19.73;11.27;;;;;;;7.42;50.17;100590.66;4961710;28;98950;-69
2022/11/20 11:25:27;;;;;;;19.67;10.90;;;;;;;7.64;49.31;100601.50;4960649;28;97809;-69
2022/11/20 11:27:57;;;;;;;19.35;10.43;;;;;;;7.29;49.57;100597.09;4958572;28;97209;-68
2022/11/20 11:30:26;;;;;;;18.30;10.48;;;;;;;7.39;49.81;100596.00;4970425;28;97768;-69